Time;durP1;ratioP1;P1;durP2;ratioP2;P2;SDS_P1;SDS_P2;PMS_P1;PMS_P2;Temp;Humidity;BMP_temperature;BMP_pressure;BME280_temperature;BME280_humidity;BME280_pressure;Samples;Min_cycle;Max_cycle;Signal;HPM_P1;HPM_P2
2022/07/03 00:00:41;;;;;;;0.30;0.30;;;14.80;99.90;;;;;;5053336;28;20412;-68
2022/07/03 00:03:07;;;;;;;0.30;0.30;;;14.70;99.90;;;;;;5053420;28;20218;-69
2022/07/03 00:05:33;;;;;;;0.30;0.30;;;14.70;99.90;;;;;;5053047;28;20208;-68
2022/07/03 00:07:59;;;;;;;0.30;0.30;;;14.70;99.90;;;;;;5053105;28;20177;-70
2022/07/03 00:10:24;;;;;;;0.30;0.30;;;14.70;99.90;;;;;;5053015;28;20166;-69
2022/07/03 00:12:50;;;;;;;0.30;0.30;;;14.70;99.90;;;;;;5053297;28;20163;-70
2022/07/03 00:15:16;;;;;;;0.30;0.30;;;14.60;99.90;;;;;;5053175;28;20190;-69
2022/07/03 00:17:41;;;;;;;0.30;0.30;;;14.60;99.90;;;;;;5053091;28;20196;-68
2022/07/03 00:20:08;;;;;;;1.33;0.57;;;14.50;99.90;;;;;;5053199;28;20628;-68
2022/07/03 00:22:38;;;;;;;0.30;0.30;;;14.50;99.90;;;;;;5052876;28;20248;-69
2022/07/03 00:25:06;;;;;;;0.40;0.40;;;14.50;99.90;;;;;;5053177;28;20456;-69
2022/07/03 00:27:33;;;;;;;0.40;0.40;;;14.40;99.90;;;;;;5052995;28;20404;-69
2022/07/03 00:30:01;;;;;;;0.30;0.30;;;14.40;99.90;;;;;;5052811;28;20393;-69
2022/07/03 00:32:27;;;;;;;0.30;0.30;;;14.40;99.90;;;;;;5052919;28;20392;-68
2022/07/03 00:34:55;;;;;;;0.30;0.30;;;14.40;99.90;;;;;;5052836;28;20469;-69
2022/07/03 00:37:22;;;;;;;0.50;0.50;;;14.40;99.90;;;;;;5052981;28;20409;-68
2022/07/03 00:39:51;;;;;;;0.43;0.43;;;14.40;99.90;;;;;;5055647;28;20468;-69
2022/07/03 00:42:17;;;;;;;0.40;0.40;;;14.50;99.90;;;;;;5056757;28;20407;-68
2022/07/03 00:44:48;;;;;;;0.30;0.30;;;14.40;99.90;;;;;;5056446;28;20447;-70
2022/07/03 00:47:17;;;;;;;0.40;0.40;;;14.40;99.90;;;;;;5056913;28;20395;-69
2022/07/03 00:49:46;;;;;;;0.30;0.30;;;14.40;99.90;;;;;;5056413;28;20408;-68
2022/07/03 00:52:13;;;;;;;0.30;0.30;;;14.40;99.90;;;;;;5056774;28;20404;-68
2022/07/03 00:54:50;;;;;;;0.30;0.30;;;14.30;99.90;;;;;;5056404;28;20403;-68
2022/07/03 00:57:17;;;;;;;0.30;0.30;;;14.30;99.90;;;;;;5056772;28;20464;-68
2022/07/03 00:59:43;;;;;;;0.30;0.30;;;14.30;99.90;;;;;;5056283;28;20797;-69
2022/07/03 01:02:22;;;;;;;0.30;0.30;;;14.30;99.90;;;;;;5056409;28;20410;-69
2022/07/03 01:04:56;;;;;;;0.30;0.30;;;14.30;99.90;;;;;;5056329;28;20832;-69
2022/07/03 01:07:47;;;;;;;0.30;0.30;;;14.30;99.90;;;;;;5056153;28;20460;-69
2022/07/03 01:10:22;;;;;;;0.30;0.30;;;14.30;99.90;;;;;;5056010;28;20395;-68
2022/07/03 01:13:08;;;;;;;0.40;0.40;;;14.30;99.90;;;;;;5056321;28;20396;-69
2022/07/03 01:16:06;;;;;;;0.30;0.30;;;14.30;99.90;;;;;;5056068;28;20939;-69
2022/07/03 01:18:44;;;;;;;0.50;0.50;;;14.30;99.90;;;;;;5055987;28;20466;-69
2022/07/03 01:21:46;;;;;;;0.30;0.30;;;14.20;99.90;;;;;;5055985;28;20764;-69
2022/07/03 01:24:44;;;;;;;0.30;0.30;;;14.20;99.90;;;;;;5055670;28;20424;-68
2022/07/03 01:27:23;;;;;;;0.30;0.30;;;14.20;99.90;;;;;;5055904;28;20434;-69
2022/07/03 01:29:57;;;;;;;0.30;0.30;;;14.20;99.90;;;;;;5055792;28;20388;-68
2022/07/03 01:32:27;;;;;;;0.30;0.30;;;14.10;99.90;;;;;;5055855;28;20976;-69
2022/07/03 01:34:53;;;;;;;0.40;0.40;;;14.10;99.90;;;;;;5055960;28;20411;-69
2022/07/03 01:37:25;;;;;;;0.30;0.30;;;14.10;99.90;;;;;;5055669;28;20407;-69
2022/07/03 01:39:53;;;;;;;0.50;0.50;;;14.20;99.90;;;;;;5055579;28;20408;-69
2022/07/03 01:42:19;;;;;;;0.40;0.40;;;14.20;99.90;;;;;;5055681;28;20411;-69
2022/07/03 01:44:48;;;;;;;0.30;0.30;;;14.10;99.90;;;;;;5055416;28;20531;-68
2022/07/03 01:47:15;;;;;;;0.40;0.40;;;14.10;99.90;;;;;;5055365;28;20408;-69
2022/07/03 01:49:42;;;;;;;0.30;0.30;;;14.00;99.90;;;;;;5055172;28;20408;-69
2022/07/03 01:52:11;;;;;;;0.30;0.30;;;14.00;99.90;;;;;;5054942;28;20431;-68
2022/07/03 01:54:39;;;;;;;0.30;0.30;;;14.00;99.90;;;;;;5055479;28;20400;-69
2022/07/03 01:57:08;;;;;;;0.67;0.67;;;13.90;99.90;;;;;;5055185;28;20428;-69
2022/07/03 01:59:35;;;;;;;0.30;0.30;;;14.00;99.90;;;;;;5054945;28;20431;-69
2022/07/03 02:02:25;;;;;;;0.30;0.30;;;13.90;99.90;;;;;;5055343;28;20405;-69
2022/07/03 02:04:50;;;;;;;0.30;0.30;;;13.90;99.90;;;;;;5055088;28;20512;-68
2022/07/03 02:07:31;;;;;;;0.40;0.40;;;13.90;99.90;;;;;;5055151;28;20415;-69
2022/07/03 02:10:10;;;;;;;0.30;0.30;;;13.90;99.90;;;;;;5054882;28;20173;-69
2022/07/03 02:13:07;;;;;;;0.57;0.57;;;13.90;99.90;;;;;;5054973;28;20404;-68
2022/07/03 02:15:34;;;;;;;0.30;0.30;;;13.90;99.90;;;;;;5054461;28;20449;-68
2022/07/03 02:18:30;;;;;;;0.30;0.30;;;13.80;99.90;;;;;;5054613;28;20410;-68
2022/07/03 02:21:17;;;;;;;0.30;0.30;;;13.80;99.90;;;;;;5054871;28;20405;-69
2022/07/03 02:24:07;;;;;;;0.30;0.30;;;13.70;99.90;;;;;;5054667;28;20795;-69
2022/07/03 02:26:35;;;;;;;0.30;0.30;;;13.70;99.90;;;;;;5054471;28;20462;-69
2022/07/03 02:29:28;;;;;;;0.30;0.30;;;13.70;99.90;;;;;;5054438;28;20397;-69
2022/07/03 02:31:59;;;;;;;0.50;0.50;;;13.70;99.90;;;;;;5054652;28;20411;-68
2022/07/03 02:34:27;;;;;;;0.30;0.30;;;13.80;99.90;;;;;;5054757;28;20411;-69
2022/07/03 02:36:59;;;;;;;0.30;0.30;;;13.70;99.90;;;;;;5054543;28;20438;-68
2022/07/03 02:39:48;;;;;;;0.40;0.40;;;13.70;99.90;;;;;;5054352;28;20409;-70
2022/07/03 02:42:39;;;;;;;0.30;0.30;;;13.70;99.90;;;;;;5054725;28;20395;-68
2022/07/03 02:45:07;;;;;;;0.30;0.30;;;13.60;99.90;;;;;;5054361;28;20454;-69
2022/07/03 02:47:32;;;;;;;0.30;0.30;;;13.60;99.90;;;;;;5054471;28;20442;-68
2022/07/03 02:50:11;;;;;;;1.70;1.60;;;13.50;99.90;;;;;;5054068;28;20420;-68
2022/07/03 02:52:44;;;;;;;0.30;0.30;;;13.50;99.90;;;;;;5054321;28;20172;-68
2022/07/03 02:55:44;;;;;;;0.30;0.30;;;13.50;99.90;;;;;;5054084;28;20424;-69
2022/07/03 02:58:28;;;;;;;0.30;0.30;;;13.50;99.90;;;;;;5053946;28;20409;-69
2022/07/03 03:01:15;;;;;;;0.30;0.30;;;13.50;99.90;;;;;;5054122;28;20408;-69
2022/07/03 03:03:49;;;;;;;0.30;0.30;;;13.60;99.90;;;;;;5053357;28;20400;-69
2022/07/03 03:06:20;;;;;;;0.30;0.30;;;13.60;99.90;;;;;;5054049;28;20459;-69
2022/07/03 03:08:50;;;;;;;0.30;0.30;;;13.60;99.90;;;;;;5053792;28;20397;-69
2022/07/03 03:11:43;;;;;;;0.30;0.30;;;13.60;99.90;;;;;;5054052;28;20453;-68
2022/07/03 03:14:13;;;;;;;0.30;0.30;;;13.60;99.90;;;;;;5054037;28;20432;-69
2022/07/03 03:16:45;;;;;;;0.30;0.30;;;13.60;99.90;;;;;;5053759;28;20420;-69
2022/07/03 03:19:12;;;;;;;0.30;0.30;;;13.60;99.90;;;;;;5053728;28;20411;-68
2022/07/03 03:21:54;;;;;;;0.30;0.30;;;13.60;99.90;;;;;;5053757;28;20759;-68
2022/07/03 03:24:22;;;;;;;0.40;0.40;;;13.60;99.90;;;;;;5053760;28;20481;-68
2022/07/03 03:26:48;;;;;;;0.30;0.30;;;13.50;99.90;;;;;;5053663;28;20863;-69
2022/07/03 03:29:13;;;;;;;0.30;0.30;;;13.50;99.90;;;;;;5053397;28;20415;-68
2022/07/03 03:31:39;;;;;;;0.30;0.30;;;13.50;99.90;;;;;;5053942;28;20736;-70
2022/07/03 03:34:06;;;;;;;0.30;0.30;;;13.50;99.90;;;;;;5053707;28;20177;-68
2022/07/03 03:36:32;;;;;;;0.30;0.30;;;13.50;99.90;;;;;;5053420;28;20272;-69
2022/07/03 03:38:58;;;;;;;0.40;0.40;;;13.50;99.90;;;;;;5053331;28;20410;-69
2022/07/03 03:41:24;;;;;;;0.37;0.37;;;13.50;99.90;;;;;;5053565;28;20412;-68
2022/07/03 03:43:49;;;;;;;0.30;0.30;;;13.40;99.90;;;;;;5053413;28;20173;-69
2022/07/03 03:46:15;;;;;;;0.40;0.40;;;13.40;99.90;;;;;;5053324;28;20983;-69
2022/07/03 03:48:41;;;;;;;0.30;0.30;;;13.30;99.90;;;;;;5053342;28;20541;-69
2022/07/03 03:51:07;;;;;;;0.40;0.40;;;13.40;99.90;;;;;;5053437;28;20247;-69
2022/07/03 03:53:33;;;;;;;0.30;0.30;;;13.40;99.90;;;;;;5053313;28;20404;-69
2022/07/03 03:56:12;;;;;;;0.30;0.30;;;13.40;99.90;;;;;;5053312;28;20592;-69
2022/07/03 03:58:39;;;;;;;0.30;0.30;;;13.40;99.90;;;;;;5053285;28;20412;-69
2022/07/03 04:01:07;;;;;;;0.70;0.70;;;13.40;99.90;;;;;;5052045;28;20431;-69
2022/07/03 04:03:33;;;;;;;0.30;0.30;;;13.40;99.90;;;;;;5053424;28;20418;-69
2022/07/03 04:06:00;;;;;;;0.30;0.30;;;13.50;99.90;;;;;;5053088;28;20468;-68
2022/07/03 04:08:26;;;;;;;0.30;0.30;;;13.50;99.90;;;;;;5053001;28;20769;-69
2022/07/03 04:10:53;;;;;;;0.30;0.30;;;13.50;99.90;;;;;;5053126;28;20863;-69
2022/07/03 04:13:19;;;;;;;0.30;0.30;;;13.60;99.90;;;;;;5053604;28;20404;-69
2022/07/03 04:15:46;;;;;;;0.33;0.33;;;13.60;99.90;;;;;;5057265;28;20911;-68
2022/07/03 04:18:12;;;;;;;0.30;0.30;;;13.60;99.90;;;;;;5057009;28;20915;-69
2022/07/03 04:20:37;;;;;;;0.30;0.30;;;13.60;99.90;;;;;;5057209;28;20419;-69
2022/07/03 04:23:03;;;;;;;0.30;0.30;;;13.70;99.90;;;;;;5056926;28;20439;-69
2022/07/03 04:25:29;;;;;;;0.40;0.40;;;13.70;99.90;;;;;;5056749;28;20623;-68
2022/07/03 04:27:55;;;;;;;0.30;0.30;;;13.70;99.90;;;;;;5056964;28;20895;-69
2022/07/03 04:30:21;;;;;;;0.30;0.30;;;14.00;99.90;;;;;;5057246;28;20408;-68
2022/07/03 04:32:47;;;;;;;0.30;0.30;;;14.70;99.90;;;;;;5056960;28;20257;-69
2022/07/03 04:35:13;;;;;;;0.30;0.30;;;15.80;99.90;;;;;;5056675;28;20485;-70
2022/07/03 04:37:39;;;;;;;0.30;0.30;;;16.70;99.90;;;;;;5056751;28;20429;-69
2022/07/03 04:40:06;;;;;;;0.30;0.30;;;17.40;99.90;;;;;;5056550;28;20924;-69
2022/07/03 04:42:31;;;;;;;0.30;0.30;;;17.90;99.90;;;;;;5056682;28;20401;-69
2022/07/03 04:44:57;;;;;;;0.30;0.30;;;18.30;98.70;;;;;;5056472;28;20445;-70
2022/07/03 04:47:23;;;;;;;0.30;0.30;;;18.40;97.80;;;;;;5056571;28;20566;-68
2022/07/03 04:49:48;;;;;;;0.80;0.80;;;18.40;97.40;;;;;;5056521;28;20635;-68
2022/07/03 04:52:14;;;;;;;0.30;0.30;;;18.30;96.80;;;;;;5056459;28;20170;-69
2022/07/03 04:54:40;;;;;;;0.50;0.50;;;18.20;97.00;;;;;;5056332;28;20169;-69
2022/07/03 04:57:06;;;;;;;0.77;0.77;;;18.40;96.80;;;;;;5056374;28;20195;-69
2022/07/03 04:59:31;;;;;;;0.40;0.40;;;18.60;96.50;;;;;;5056139;28;20194;-69
2022/07/03 05:01:57;;;;;;;0.30;0.30;;;18.80;96.10;;;;;;5056392;28;20403;-69
2022/07/03 05:04:23;;;;;;;0.30;0.30;;;19.10;95.50;;;;;;5056195;28;20176;-69
2022/07/03 05:06:49;;;;;;;0.30;0.30;;;19.20;95.10;;;;;;5055929;28;20244;-68
2022/07/03 05:09:14;;;;;;;0.40;0.40;;;19.20;95.10;;;;;;5056104;28;20413;-69
2022/07/03 05:11:41;;;;;;;0.40;0.40;;;19.40;95.20;;;;;;5056329;28;20226;-70
2022/07/03 05:14:07;;;;;;;0.87;0.57;;;19.60;94.40;;;;;;5056150;28;20762;-70
2022/07/03 05:16:33;;;;;;;0.30;0.30;;;19.50;93.80;;;;;;5055941;28;20431;-69
2022/07/03 05:18:58;;;;;;;0.30;0.30;;;19.40;93.80;;;;;;5055891;28;20411;-69
2022/07/03 05:21:24;;;;;;;0.30;0.30;;;19.30;94.40;;;;;;5055856;28;20491;-68
2022/07/03 05:23:50;;;;;;;0.30;0.30;;;19.20;94.20;;;;;;5055747;28;20189;-70
2022/07/03 05:26:15;;;;;;;0.30;0.30;;;19.10;94.60;;;;;;5054716;28;20548;-69
2022/07/03 05:28:41;;;;;;;0.30;0.30;;;19.20;95.10;;;;;;5055722;28;20296;-68
2022/07/03 05:31:07;;;;;;;0.60;0.60;;;19.40;94.40;;;;;;5055706;28;20291;-70
2022/07/03 05:33:33;;;;;;;0.30;0.30;;;19.30;94.30;;;;;;5055859;28;20173;-69
2022/07/03 05:35:59;;;;;;;1.13;1.13;;;19.30;95.20;;;;;;5055568;28;20196;-69
2022/07/03 05:41:09;;;;;;;0.30;0.30;;;19.50;95.00;;;;;;5055792;28;20410;-69
2022/07/03 05:43:35;;;;;;;0.30;0.30;;;19.50;95.40;;;;;;5055555;28;20409;-69
2022/07/03 05:46:01;;;;;;;0.30;0.30;;;19.80;95.30;;;;;;5055314;28;20522;-69
2022/07/03 05:48:26;;;;;;;0.30;0.30;;;20.00;94.50;;;;;;5055278;28;20172;-69
2022/07/03 05:50:52;;;;;;;0.30;0.30;;;20.10;94.40;;;;;;5055341;28;20166;-70
2022/07/03 05:53:18;;;;;;;1.67;1.57;;;20.00;95.20;;;;;;5055737;28;20201;-69
2022/07/03 05:55:44;;;;;;;0.30;0.30;;;20.00;94.60;;;;;;5055192;28;20430;-69
2022/07/03 05:58:09;;;;;;;0.30;0.30;;;20.00;94.80;;;;;;5055230;28;20267;-70
2022/07/03 06:00:35;;;;;;;0.30;0.30;;;20.00;94.70;;;;;;5055434;28;20230;-70
2022/07/03 06:03:02;;;;;;;0.30;0.30;;;20.10;94.80;;;;;;5055065;28;20173;-69
2022/07/03 06:05:28;;;;;;;0.30;0.30;;;20.20;95.30;;;;;;5054978;28;20512;-69
2022/07/03 06:07:54;;;;;;;0.30;0.30;;;20.30;94.70;;;;;;5054364;28;20408;-69
2022/07/03 06:10:19;;;;;;;0.30;0.30;;;20.60;94.80;;;;;;5054934;28;20401;-69
2022/07/03 06:12:45;;;;;;;0.60;0.60;;;21.10;94.80;;;;;;5054648;28;20204;-70
2022/07/03 06:15:10;;;;;;;1.00;0.60;;;21.80;93.30;;;;;;5054985;28;20191;-69
2022/07/03 06:17:36;;;;;;;0.30;0.30;;;22.70;93.20;;;;;;5054988;28;20174;-70
2022/07/03 06:20:04;;;;;;;0.30;0.30;;;23.80;92.50;;;;;;5054730;28;20223;-70
2022/07/03 06:22:29;;;;;;;0.30;0.30;;;25.10;89.20;;;;;;5054620;28;20429;-70
2022/07/03 06:24:55;;;;;;;0.30;0.30;;;26.50;86.20;;;;;;5054991;28;20919;-70
2022/07/03 06:27:21;;;;;;;0.30;0.30;;;27.70;77.50;;;;;;5054765;28;20216;-70
2022/07/03 06:29:49;;;;;;;0.30;0.30;;;27.80;74.40;;;;;;5054414;28;20162;-69
2022/07/03 06:32:15;;;;;;;0.30;0.30;;;28.30;73.00;;;;;;5054501;28;20383;-69
2022/07/03 06:34:42;;;;;;;0.30;0.30;;;28.90;70.60;;;;;;5054887;28;20405;-70
2022/07/03 06:37:11;;;;;;;0.40;0.40;;;29.30;66.30;;;;;;5054573;28;20409;-70
2022/07/03 06:39:37;;;;;;;0.40;0.40;;;29.40;63.50;;;;;;5054284;28;20901;-70
2022/07/03 06:42:03;;;;;;;0.50;0.50;;;29.10;63.20;;;;;;5054513;28;20753;-70
2022/07/03 06:44:29;;;;;;;0.30;0.30;;;29.20;65.20;;;;;;5054455;28;20964;-70
2022/07/03 06:46:55;;;;;;;0.30;0.30;;;29.40;66.20;;;;;;5054347;28;20595;-70
2022/07/03 06:49:21;;;;;;;0.30;0.30;;;30.00;61.40;;;;;;5054055;28;20736;-70
2022/07/03 06:51:46;;;;;;;0.30;0.30;;;31.50;60.40;;;;;;5054257;28;20162;-70
2022/07/03 06:54:12;;;;;;;0.30;0.30;;;33.00;57.00;;;;;;5054511;28;20575;-70
2022/07/03 06:56:38;;;;;;;0.40;0.30;;;34.10;52.90;;;;;;5054148;28;20201;-70
2022/07/03 06:59:04;;;;;;;0.37;0.30;;;35.00;51.80;;;;;;5053942;28;20178;-71
2022/07/03 07:01:30;;;;;;;0.30;0.30;;;35.90;47.80;;;;;;5054007;28;20185;-70
2022/07/03 07:03:55;;;;;;;0.40;0.30;;;36.80;46.20;;;;;;5054181;28;20400;-71
2022/07/03 07:06:21;;;;;;;0.30;0.30;;;37.70;42.30;;;;;;5053812;28;20228;-70
2022/07/03 07:08:47;;;;;;;0.30;0.30;;;38.40;41.70;;;;;;5053775;28;20227;-70
2022/07/03 07:11:13;;;;;;;0.40;0.40;;;38.80;41.80;;;;;;5053851;28;20200;-71
2022/07/03 07:13:38;;;;;;;0.30;0.30;;;38.90;39.60;;;;;;5053996;28;20779;-71
2022/07/03 07:16:04;;;;;;;0.40;0.30;;;38.70;39.10;;;;;;5053593;28;20216;-70
2022/07/03 07:18:30;;;;;;;0.30;0.30;;;38.90;40.10;;;;;;5053612;28;20193;-71
2022/07/03 07:20:56;;;;;;;0.30;0.30;;;39.20;38.30;;;;;;5053823;28;20405;-71
2022/07/03 07:23:22;;;;;;;0.30;0.30;;;39.50;38.20;;;;;;5052229;28;20669;-70
2022/07/03 07:25:47;;;;;;;0.40;0.30;;;39.50;34.50;;;;;;5053621;28;20202;-71
2022/07/03 07:28:13;;;;;;;0.37;0.33;;;39.70;35.50;;;;;;5053578;28;20166;-71
2022/07/03 07:30:39;;;;;;;0.30;0.30;;;39.60;34.00;;;;;;5053731;28;20177;-70
2022/07/03 07:33:06;;;;;;;0.30;0.30;;;38.90;35.60;;;;;;5053603;28;20296;-71
2022/07/03 07:35:31;;;;;;;0.30;0.30;;;38.50;35.60;;;;;;5052130;28;20436;-70
2022/07/03 07:37:57;;;;;;;0.40;0.30;;;38.40;35.00;;;;;;5053326;28;20413;-72
2022/07/03 07:40:23;;;;;;;0.30;0.30;;;38.50;35.10;;;;;;5053578;28;20654;-70
2022/07/03 07:42:48;;;;;;;0.40;0.40;;;38.80;35.10;;;;;;5053626;28;20174;-70
2022/07/03 07:45:14;;;;;;;0.40;0.30;;;38.90;33.40;;;;;;5053436;28;20198;-71
2022/07/03 07:47:39;;;;;;;0.33;0.30;;;39.60;35.40;;;;;;5053681;28;20209;-70
2022/07/03 07:50:06;;;;;;;0.30;0.30;;;40.50;34.30;;;;;;5052923;28;20198;-70
2022/07/03 07:52:32;;;;;;;0.40;0.40;;;40.80;33.50;;;;;;5053706;28;20249;-71
2022/07/03 07:54:57;;;;;;;0.30;0.30;;;41.30;32.80;;;;;;5053329;28;20920;-72
2022/07/03 07:57:23;;;;;;;0.30;0.30;;;41.60;30.00;;;;;;5053300;28;20173;-71
2022/07/03 07:59:49;;;;;;;0.30;0.30;;;41.20;30.60;;;;;;5053013;28;20188;-71
2022/07/03 08:07:42;;;;;;;0.33;0.33;;;41.30;28.70;;;;;;5053208;28;20388;-70
2022/07/03 08:10:08;;;;;;;0.30;0.30;;;39.80;30.40;;;;;;5053192;28;20788;-70
2022/07/03 08:12:34;;;;;;;0.30;0.30;;;39.90;29.80;;;;;;5053176;28;20170;-71
2022/07/03 08:14:59;;;;;;;0.37;0.37;;;40.50;30.20;;;;;;5053101;28;20209;-71
2022/07/03 08:17:25;;;;;;;0.40;0.40;;;39.50;28.50;;;;;;5053303;28;20222;-71
2022/07/03 08:19:51;;;;;;;0.30;0.30;;;38.60;30.00;;;;;;5053129;28;20166;-71
2022/07/03 08:22:16;;;;;;;0.33;0.30;;;39.30;31.80;;;;;;5052976;28;20174;-71
2022/07/03 08:24:42;;;;;;;0.40;0.30;;;38.10;30.40;;;;;;5053029;28;20174;-71
2022/07/03 08:27:07;;;;;;;0.40;0.40;;;38.20;30.60;;;;;;5053023;28;20202;-71
2022/07/03 08:29:33;;;;;;;0.30;0.30;;;38.90;30.80;;;;;;5052885;28;20249;-71
2022/07/03 08:31:59;;;;;;;0.37;0.30;;;39.40;33.70;;;;;;5051779;28;20182;-71
2022/07/03 08:34:24;;;;;;;0.30;0.30;;;39.60;30.10;;;;;;5053075;28;20182;-71
2022/07/03 08:36:50;;;;;;;0.30;0.30;;;40.20;30.00;;;;;;5051639;28;20678;-71
2022/07/03 08:39:16;;;;;;;0.30;0.30;;;40.90;31.60;;;;;;5052745;28;20201;-70
2022/07/03 08:41:41;;;;;;;0.30;0.30;;;41.30;30.00;;;;;;5052749;28;20174;-71
2022/07/03 08:44:12;;;;;;;0.40;0.40;;;41.00;29.30;;;;;;5052915;28;20170;-71
2022/07/03 08:46:39;;;;;;;0.30;0.30;;;41.20;30.50;;;;;;5052737;28;20201;-70
2022/07/03 08:49:06;;;;;;;0.30;0.30;;;41.40;31.40;;;;;;5052761;28;20408;-71
2022/07/03 08:51:32;;;;;;;0.30;0.30;;;41.40;29.20;;;;;;5053025;28;20428;-70
2022/07/03 08:54:01;;;;;;;0.30;0.30;;;41.10;30.30;;;;;;5052889;28;20435;-71
2022/07/03 08:56:27;;;;;;;0.30;0.30;;;41.30;30.70;;;;;;5052723;28;20554;-71
2022/07/03 08:58:56;;;;;;;0.40;0.40;;;40.50;29.70;;;;;;5052820;28;20411;-71
2022/07/03 09:01:22;;;;;;;0.30;0.30;;;41.00;30.70;;;;;;5054865;28;20405;-71
2022/07/03 09:03:49;;;;;;;0.30;0.30;;;41.20;29.20;;;;;;5056506;28;20431;-71
2022/07/03 09:06:17;;;;;;;0.40;0.30;;;40.30;29.20;;;;;;5056368;28;20888;-71
2022/07/03 09:08:43;;;;;;;0.40;0.30;;;39.60;30.50;;;;;;5056320;28;20400;-71
2022/07/03 09:11:10;;;;;;;0.30;0.30;;;38.70;30.50;;;;;;5056123;28;20396;-70
2022/07/03 09:13:36;;;;;;;0.40;0.30;;;37.80;33.90;;;;;;5056139;28;20401;-70
2022/07/03 09:16:02;;;;;;;0.40;0.30;;;38.10;32.90;;;;;;5056082;28;20955;-72
2022/07/03 09:18:39;;;;;;;0.40;0.30;;;39.00;33.40;;;;;;5055856;28;20538;-70
2022/07/03 09:21:05;;;;;;;0.40;0.30;;;38.70;33.00;;;;;;5056096;28;20166;-70
2022/07/03 09:23:38;;;;;;;0.40;0.30;;;37.30;32.00;;;;;;5055916;28;20479;-69
2022/07/03 09:26:04;;;;;;;0.30;0.30;;;37.00;33.30;;;;;;5055690;28;20494;-70
2022/07/03 09:28:43;;;;;;;0.40;0.30;;;36.90;33.30;;;;;;5055687;28;20397;-70
2022/07/03 09:31:13;;;;;;;0.40;0.40;;;36.40;33.30;;;;;;5055910;28;20417;-70
2022/07/03 09:33:58;;;;;;;0.60;0.40;;;36.10;33.20;;;;;;5055864;28;20889;-71
2022/07/03 09:36:46;;;;;;;0.37;0.30;;;36.70;34.50;;;;;;5055568;28;20436;-71
2022/07/03 09:39:16;;;;;;;0.30;0.30;;;36.90;36.30;;;;;;5055512;28;20412;-70
2022/07/03 09:41:52;;;;;;;0.30;0.30;;;36.60;35.00;;;;;;5055685;28;20406;-70
2022/07/03 09:44:38;;;;;;;0.30;0.30;;;36.90;36.40;;;;;;5055495;28;20791;-71
2022/07/03 09:47:09;;;;;;;0.30;0.30;;;37.20;33.20;;;;;;5055284;28;20471;-71
2022/07/03 09:49:48;;;;;;;0.30;0.30;;;37.20;36.30;;;;;;5055334;28;20404;-71
2022/07/03 09:52:42;;;;;;;0.30;0.30;;;37.00;37.00;;;;;;5055534;28;20455;-71
2022/07/03 09:55:11;;;;;;;0.40;0.40;;;36.60;33.30;;;;;;5055243;28;20424;-71
2022/07/03 09:58:02;;;;;;;0.40;0.30;;;35.90;33.60;;;;;;5055348;28;20799;-70
2022/07/03 10:00:30;;;;;;;0.40;0.37;;;36.10;34.70;;;;;;5054561;28;20527;-71
2022/07/03 10:03:00;;;;;;;0.40;0.30;;;36.00;35.90;;;;;;5055438;28;20408;-70
2022/07/03 10:05:38;;;;;;;0.40;0.30;;;36.20;36.40;;;;;;5055207;28;20822;-70
2022/07/03 10:08:15;;;;;;;0.40;0.30;;;36.80;35.00;;;;;;5054968;28;20400;-70
2022/07/03 10:10:46;;;;;;;0.40;0.40;;;36.80;36.10;;;;;;5055216;28;20409;-70
2022/07/03 10:13:12;;;;;;;0.40;0.30;;;36.70;36.80;;;;;;5054827;28;20397;-70
2022/07/03 10:15:39;;;;;;;0.40;0.30;;;35.80;34.70;;;;;;5054891;28;20436;-70
2022/07/03 10:18:10;;;;;;;0.40;0.30;;;35.50;39.20;;;;;;5054700;28;20404;-70
2022/07/03 10:20:43;;;;;;;0.30;0.30;;;35.80;36.20;;;;;;5055039;28;20404;-71
2022/07/03 10:23:10;;;;;;;0.40;0.30;;;35.50;35.80;;;;;;5054656;28;20428;-70
2022/07/03 10:25:36;;;;;;;0.40;0.30;;;35.00;39.00;;;;;;5054782;28;20828;-70
2022/07/03 10:28:02;;;;;;;0.40;0.40;;;34.70;37.70;;;;;;5054526;28;20435;-70
2022/07/03 10:30:28;;;;;;;0.40;0.30;;;34.70;39.70;;;;;;5054930;28;20903;-71
2022/07/03 10:32:56;;;;;;;0.30;0.30;;;34.60;39.00;;;;;;5054718;28;20409;-71
2022/07/03 10:35:33;;;;;;;0.30;0.30;;;34.50;36.30;;;;;;5054536;28;20432;-71
2022/07/03 10:38:02;;;;;;;0.40;0.30;;;34.40;37.80;;;;;;5054308;28;20764;-71
2022/07/03 10:46:24;;;;;;;0.30;0.30;;;34.40;39.20;;;;;;5054297;28;20455;-70
2022/07/03 10:48:51;;;;;;;0.30;0.30;;;34.30;38.30;;;;;;5054588;28;20401;-70
2022/07/03 10:51:17;;;;;;;0.30;0.30;;;33.70;36.20;;;;;;5054607;28;20420;-71
2022/07/03 10:53:42;;;;;;;0.30;0.30;;;33.30;39.80;;;;;;5054149;28;20408;-70
2022/07/03 10:56:08;;;;;;;0.30;0.30;;;33.10;42.00;;;;;;5054148;28;20237;-70
2022/07/03 10:58:55;;;;;;;0.30;0.30;;;33.10;40.60;;;;;;5053938;28;20541;-69
2022/07/03 11:01:30;;;;;;;0.40;0.30;;;33.00;38.30;;;;;;5054068;28;20523;-70
2022/07/03 11:04:00;;;;;;;0.40;0.40;;;32.50;41.60;;;;;;5054364;28;20408;-69
2022/07/03 11:06:44;;;;;;;0.40;0.40;;;32.30;42.40;;;;;;5053777;28;20819;-70
2022/07/03 11:09:14;;;;;;;0.30;0.30;;;31.90;43.30;;;;;;5053779;28;20412;-70
2022/07/03 11:11:56;;;;;;;0.30;0.30;;;31.30;42.60;;;;;;5053746;28;20405;-70
2022/07/03 11:14:24;;;;;;;0.30;0.30;;;31.20;43.40;;;;;;5054274;28;20865;-69
2022/07/03 11:17:15;;;;;;;0.63;0.60;;;30.40;43.20;;;;;;5053696;28;20432;-70
2022/07/03 11:19:41;;;;;;;0.40;0.40;;;30.30;48.40;;;;;;5053583;28;20413;-70
2022/07/03 11:22:15;;;;;;;0.30;0.30;;;30.10;45.00;;;;;;5053698;28;20531;-69
2022/07/03 11:24:45;;;;;;;0.50;0.40;;;30.00;47.90;;;;;;5053182;28;20267;-70
2022/07/03 11:27:27;;;;;;;0.30;0.30;;;30.10;44.50;;;;;;5053708;28;20417;-70
2022/07/03 11:29:57;;;;;;;0.40;0.40;;;30.30;46.50;;;;;;5053624;28;20404;-70
2022/07/03 11:32:49;;;;;;;0.30;0.30;;;30.30;47.00;;;;;;5053744;28;20883;-70
2022/07/03 11:35:46;;;;;;;0.50;0.50;;;30.10;45.90;;;;;;5052263;28;20436;-69
2022/07/03 11:38:22;;;;;;;0.30;0.30;;;30.00;44.70;;;;;;5053389;28;20519;-70
2022/07/03 11:40:50;;;;;;;0.30;0.30;;;29.90;46.40;;;;;;5053692;28;20408;-70
2022/07/03 11:43:16;;;;;;;0.30;0.30;;;29.70;44.90;;;;;;5053466;28;20436;-69
2022/07/03 11:45:41;;;;;;;0.40;0.40;;;29.80;48.10;;;;;;5053351;28;21008;-71
2022/07/03 11:48:15;;;;;;;0.30;0.30;;;29.70;47.20;;;;;;5053361;28;20583;-72
2022/07/03 11:50:44;;;;;;;0.30;0.30;;;29.60;47.90;;;;;;5053434;28;20170;-70
2022/07/03 11:53:31;;;;;;;0.30;0.30;;;29.50;47.80;;;;;;5053487;28;20416;-68
2022/07/03 11:55:59;;;;;;;0.30;0.30;;;29.40;49.40;;;;;;5053498;28;20459;-69
2022/07/03 11:58:26;;;;;;;0.30;0.30;;;29.40;48.00;;;;;;5053302;28;20810;-68
2022/07/03 12:00:53;;;;;;;0.30;0.30;;;29.40;46.00;;;;;;5053429;28;20408;-69
2022/07/03 12:03:24;;;;;;;0.50;0.50;;;29.20;44.60;;;;;;5053421;28;20491;-69
2022/07/03 12:05:55;;;;;;;0.30;0.30;;;29.30;45.80;;;;;;5053060;28;20923;-69
2022/07/03 12:08:32;;;;;;;0.30;0.30;;;29.30;46.20;;;;;;5053101;28;20522;-69
2022/07/03 12:11:10;;;;;;;0.30;0.30;;;29.20;47.00;;;;;;5053386;28;20499;-69
2022/07/03 12:13:36;;;;;;;0.30;0.30;;;29.10;45.80;;;;;;5053426;28;20449;-68
2022/07/03 12:16:07;;;;;;;0.40;0.40;;;28.80;46.60;;;;;;5053106;28;20435;-69
2022/07/03 12:18:43;;;;;;;0.30;0.30;;;28.90;48.30;;;;;;5053134;28;20438;-70
2022/07/03 12:21:09;;;;;;;0.60;0.60;;;29.00;45.80;;;;;;5053287;28;20412;-69
2022/07/03 12:23:50;;;;;;;0.40;0.40;;;28.90;45.70;;;;;;5053014;28;20429;-69
2022/07/03 12:26:33;;;;;;;0.30;0.30;;;28.50;46.20;;;;;;5052989;28;20201;-70
2022/07/03 12:29:02;;;;;;;0.30;0.30;;;28.50;49.10;;;;;;5052882;28;20400;-69
2022/07/03 12:31:28;;;;;;;0.50;0.50;;;28.40;48.30;;;;;;5053228;28;20411;-69
2022/07/03 12:33:55;;;;;;;0.30;0.30;;;28.50;46.60;;;;;;5053415;28;20491;-69
2022/07/03 12:36:21;;;;;;;0.83;0.63;;;28.60;47.90;;;;;;5056628;28;20902;-69
2022/07/03 12:38:52;;;;;;;0.30;0.30;;;28.50;46.70;;;;;;5056716;28;20495;-69
2022/07/03 12:41:20;;;;;;;0.30;0.30;;;28.30;45.20;;;;;;5056747;28;20174;-68
2022/07/03 12:43:48;;;;;;;0.40;0.40;;;28.30;49.00;;;;;;5056907;28;20408;-68
2022/07/03 12:46:24;;;;;;;0.30;0.30;;;28.20;48.50;;;;;;5056596;28;20554;-70
2022/07/03 12:48:57;;;;;;;0.50;0.50;;;28.20;47.40;;;;;;5056434;28;20502;-70
2022/07/03 12:51:45;;;;;;;0.70;0.50;;;28.10;46.40;;;;;;5056686;28;20408;-70
2022/07/03 12:54:16;;;;;;;0.30;0.30;;;28.30;46.40;;;;;;5056544;28;20397;-70
2022/07/03 12:56:43;;;;;;;0.30;0.30;;;28.20;44.90;;;;;;5056278;28;20459;-70
2022/07/03 12:59:28;;;;;;;0.30;0.30;;;28.30;46.40;;;;;;5056207;28;20419;-70
2022/07/03 13:02:00;;;;;;;0.30;0.30;;;28.50;48.50;;;;;;5056417;28;20409;-70
2022/07/03 13:04:34;;;;;;;0.40;0.40;;;28.60;45.60;;;;;;5054893;28;20819;-70
2022/07/03 13:07:05;;;;;;;0.50;0.50;;;28.50;48.50;;;;;;5056097;28;20452;-69
2022/07/03 13:09:32;;;;;;;0.30;0.30;;;28.20;48.70;;;;;;5056317;28;20488;-70
2022/07/03 13:11:57;;;;;;;0.30;0.30;;;28.20;48.90;;;;;;5056270;28;20539;-70
2022/07/03 13:14:24;;;;;;;0.30;0.30;;;28.10;47.10;;;;;;5054965;28;20503;-70
2022/07/03 13:16:55;;;;;;;0.40;0.40;;;28.00;48.20;;;;;;5056415;28;20190;-70